Main page
METAR-TAF:

METAR-TAF

Airports :

Shanghai-Pudong, China

Shanghai Pudong International Airport

latitude: 31-07N, longitude: 121-46E, elevation: 4 m

Current weather observation

The report was made 29 minutes ago, at 14:30 UTC
Wind 8 kt from the Northeast, varying between North and East/Northeast
Temperature 10°C
Humidity 82%
Pressure 1024 hPa
Visibility 10 km or more
Broken clouds at a height of 1600 ft

METAR: ZSPD 291430Z 04004MPS 010V070 9999 BKN016 10/07 Q1024 NOSIG

Time: 22:59 (14:59 UTC)

Forecast

The report was made 5 hours and 37 minutes ago, at 09:22 UTC
Forecast valid from 29 at 12 UTC to 30 at 12 UTC
Wind 8 kt from the East/Northeast
Visibility: 5000 m
Broken clouds at a height of 1100 ft
mist

TAF: ZSPD 290922Z 2912/3012 07004MPS 5000 BR BKN011 TX13/3006Z TN08/2921Z

Weather observations and forecasts of more than 4000 airports (METAR and TAF reports).

The available stations are represented by yellow and red dots on the map.

Hover mouse over dot to see the name of the station.

Then click to see weather observations and forecasts.

To change the map : click on the green buttons with a black cross to zoom in, on the green button with a dash to zoom out, or on the green arrows for adjacent maps.


METAR-TAF: